sensor_id;sensor_type;location;lat;lon;timestamp;pressure;altitude;pressure_sealevel;temperature;humidity
23589;BME280;11972;48.078;11.876;2023-01-28T00:00:50;95688.09;;;-1.73;100.00
23589;BME280;11972;48.078;11.876;2023-01-28T00:04:51;95685.00;;;-1.79;100.00
23589;BME280;11972;48.078;11.876;2023-01-28T00:08:51;95691.19;;;-1.81;100.00
23589;BME280;11972;48.078;11.876;2023-01-28T00:12:51;95692.38;;;-1.72;100.00
23589;BME280;11972;48.078;11.876;2023-01-28T00:16:52;95687.28;;;-1.74;100.00
23589;BME280;11972;48.078;11.876;2023-01-28T00:21:10;95692.25;;;-1.71;100.00
23589;BME280;11972;48.078;11.876;2023-01-28T00:25:10;95688.72;;;-1.70;100.00
23589;BME280;11972;48.078;11.876;2023-01-28T00:29:11;95688.53;;;-1.67;100.00
23589;BME280;11972;48.078;11.876;2023-01-28T00:33:11;95690.38;;;-1.69;100.00
23589;BME280;11972;48.078;11.876;2023-01-28T00:37:12;95692.97;;;-1.69;100.00
23589;BME280;11972;48.078;11.876;2023-01-28T00:41:14;95691.81;;;-1.65;100.00
23589;BME280;11972;48.078;11.876;2023-01-28T00:45:15;95700.53;;;-1.66;100.00
23589;BME280;11972;48.078;11.876;2023-01-28T00:49:16;95684.66;;;-1.48;100.00
23589;BME280;11972;48.078;11.876;2023-01-28T00:53:16;95684.09;;;-1.52;100.00
23589;BME280;11972;48.078;11.876;2023-01-28T00:57:17;95681.06;;;-1.59;100.00
23589;BME280;11972;48.078;11.876;2023-01-28T01:01:20;95695.78;;;-1.59;100.00
23589;BME280;11972;48.078;11.876;2023-01-28T01:05:21;95688.84;;;-1.59;100.00
23589;BME280;11972;48.078;11.876;2023-01-28T01:09:21;95691.22;;;-1.68;100.00
23589;BME280;11972;48.078;11.876;2023-01-28T01:13:22;95689.34;;;-1.66;100.00
23589;BME280;11972;48.078;11.876;2023-01-28T01:17:22;95696.41;;;-1.56;100.00
23589;BME280;11972;48.078;11.876;2023-01-28T01:21:25;95683.34;;;-1.54;100.00
23589;BME280;11972;48.078;11.876;2023-01-28T01:25:26;95684.59;;;-1.60;100.00
23589;BME280;11972;48.078;11.876;2023-01-28T01:29:26;95692.06;;;-1.55;100.00
23589;BME280;11972;48.078;11.876;2023-01-28T01:33:28;95695.59;;;-1.56;100.00
23589;BME280;11972;48.078;11.876;2023-01-28T01:37:28;95704.50;;;-1.60;100.00
23589;BME280;11972;48.078;11.876;2023-01-28T01:41:31;95699.41;;;-1.75;100.00
23589;BME280;11972;48.078;11.876;2023-01-28T01:45:32;95706.16;;;-1.72;100.00
23589;BME280;11972;48.078;11.876;2023-01-28T01:49:34;95714.00;;;-1.61;100.00
23589;BME280;11972;48.078;11.876;2023-01-28T01:53:36;95716.91;;;-1.53;100.00
23589;BME280;11972;48.078;11.876;2023-01-28T01:57:40;95718.59;;;-1.52;100.00
23589;BME280;11972;48.078;11.876;2023-01-28T02:01:42;95724.78;;;-1.41;100.00
23589;BME280;11972;48.078;11.876;2023-01-28T02:05:44;95725.59;;;-1.41;100.00
23589;BME280;11972;48.078;11.876;2023-01-28T02:09:45;95720.84;;;-1.34;100.00
23589;BME280;11972;48.078;11.876;2023-01-28T02:13:49;95715.84;;;-1.25;100.00
23589;BME280;11972;48.078;11.876;2023-01-28T02:17:51;95722.69;;;-1.11;100.00
23589;BME280;11972;48.078;11.876;2023-01-28T02:30:15;95723.59;;;-0.86;100.00
23589;BME280;11972;48.078;11.876;2023-01-28T02:38:47;95721.81;;;-0.86;100.00
23589;BME280;11972;48.078;11.876;2023-01-28T02:42:48;95724.53;;;-1.00;100.00
23589;BME280;11972;48.078;11.876;2023-01-28T02:46:51;95721.56;;;-1.07;100.00
23589;BME280;11972;48.078;11.876;2023-01-28T02:51:29;95729.75;;;-1.13;100.00
23589;BME280;11972;48.078;11.876;2023-01-28T02:59:49;95734.13;;;-1.52;100.00
23589;BME280;11972;48.078;11.876;2023-01-28T03:04:08;95733.91;;;-1.48;100.00
23589;BME280;11972;48.078;11.876;2023-01-28T03:08:13;95740.75;;;-1.35;100.00
23589;BME280;11972;48.078;11.876;2023-01-28T03:12:34;95735.75;;;-1.25;100.00
23589;BME280;11972;48.078;11.876;2023-01-28T03:16:56;95738.88;;;-1.33;100.00
23589;BME280;11972;48.078;11.876;2023-01-28T03:21:21;95737.41;;;-1.24;100.00
23589;BME280;11972;48.078;11.876;2023-01-28T03:25:44;95739.91;;;-1.22;100.00
23589;BME280;11972;48.078;11.876;2023-01-28T03:30:11;95740.94;;;-1.25;100.00
23589;BME280;11972;48.078;11.876;2023-01-28T03:34:31;95739.28;;;-1.13;100.00
23589;BME280;11972;48.078;11.876;2023-01-28T03:38:50;95742.81;;;-1.14;100.00
23589;BME280;11972;48.078;11.876;2023-01-28T03:42:51;95747.59;;;-1.21;100.00
23589;BME280;11972;48.078;11.876;2023-01-28T03:46:53;95751.22;;;-1.36;100.00
23589;BME280;11972;48.078;11.876;2023-01-28T03:50:54;95744.81;;;-1.43;100.00
23589;BME280;11972;48.078;11.876;2023-01-28T03:54:55;95745.50;;;-1.54;100.00
23589;BME280;11972;48.078;11.876;2023-01-28T03:58:55;95744.88;;;-1.58;100.00
23589;BME280;11972;48.078;11.876;2023-01-28T04:02:56;95749.34;;;-1.60;100.00
23589;BME280;11972;48.078;11.876;2023-01-28T04:06:57;95750.06;;;-1.58;100.00
23589;BME280;11972;48.078;11.876;2023-01-28T04:10:57;95751.13;;;-1.47;100.00
23589;BME280;11972;48.078;11.876;2023-01-28T04:14:59;95758.59;;;-1.30;100.00
23589;BME280;11972;48.078;11.876;2023-01-28T04:18:59;95761.47;;;-1.22;100.00
23589;BME280;11972;48.078;11.876;2023-01-28T04:22:59;95765.41;;;-1.29;100.00
23589;BME280;11972;48.078;11.876;2023-01-28T04:27:00;95766.44;;;-1.44;100.00
23589;BME280;11972;48.078;11.876;2023-01-28T04:31:00;95767.06;;;-1.54;100.00
23589;BME280;11972;48.078;11.876;2023-01-28T04:35:01;95777.09;;;-1.62;100.00
23589;BME280;11972;48.078;11.876;2023-01-28T04:39:02;95777.09;;;-1.62;100.00
23589;BME280;11972;48.078;11.876;2023-01-28T04:43:02;95788.41;;;-1.63;100.00
23589;BME280;11972;48.078;11.876;2023-01-28T04:47:03;95790.25;;;-1.65;100.00
23589;BME280;11972;48.078;11.876;2023-01-28T04:51:03;95786.84;;;-1.65;100.00
23589;BME280;11972;48.078;11.876;2023-01-28T04:55:04;95791.72;;;-1.61;100.00
23589;BME280;11972;48.078;11.876;2023-01-28T04:59:05;95795.03;;;-1.59;100.00
23589;BME280;11972;48.078;11.876;2023-01-28T05:03:05;95796.69;;;-1.58;100.00
23589;BME280;11972;48.078;11.876;2023-01-28T05:07:06;95803.94;;;-1.63;100.00
23589;BME280;11972;48.078;11.876;2023-01-28T05:11:06;95805.78;;;-1.65;100.00
23589;BME280;11972;48.078;11.876;2023-01-28T05:15:07;95805.59;;;-1.62;100.00
23589;BME280;11972;48.078;11.876;2023-01-28T05:19:07;95806.44;;;-1.61;100.00
23589;BME280;11972;48.078;11.876;2023-01-28T05:23:08;95807.25;;;-1.61;100.00
23589;BME280;11972;48.078;11.876;2023-01-28T05:27:08;95806.25;;;-1.45;100.00
23589;BME280;11972;48.078;11.876;2023-01-28T05:31:09;95811.94;;;-1.40;100.00
23589;BME280;11972;48.078;11.876;2023-01-28T05:35:09;95821.78;;;-1.45;100.00
23589;BME280;11972;48.078;11.876;2023-01-28T05:39:10;95830.19;;;-1.55;100.00
23589;BME280;11972;48.078;11.876;2023-01-28T05:43:10;95832.78;;;-1.55;100.00
23589;BME280;11972;48.078;11.876;2023-01-28T05:47:10;95829.66;;;-1.60;100.00
23589;BME280;11972;48.078;11.876;2023-01-28T05:51:11;95832.31;;;-1.61;100.00
23589;BME280;11972;48.078;11.876;2023-01-28T05:55:11;95830.88;;;-1.53;100.00
23589;BME280;11972;48.078;11.876;2023-01-28T05:59:12;95839.19;;;-1.60;100.00
23589;BME280;11972;48.078;11.876;2023-01-28T06:03:12;95837.81;;;-1.66;100.00
23589;BME280;11972;48.078;11.876;2023-01-28T06:07:12;95842.47;;;-1.71;100.00
23589;BME280;11972;48.078;11.876;2023-01-28T06:11:14;95848.88;;;-1.77;100.00
23589;BME280;11972;48.078;11.876;2023-01-28T06:15:15;95845.44;;;-1.77;100.00
23589;BME280;11972;48.078;11.876;2023-01-28T06:19:15;95848.78;;;-1.75;100.00
23589;BME280;11972;48.078;11.876;2023-01-28T06:23:15;95859.25;;;-1.77;100.00
23589;BME280;11972;48.078;11.876;2023-01-28T06:27:16;95861.53;;;-1.72;100.00
23589;BME280;11972;48.078;11.876;2023-01-28T06:31:16;95863.53;;;-1.63;100.00
23589;BME280;11972;48.078;11.876;2023-01-28T06:35:16;95860.59;;;-1.71;100.00
23589;BME280;11972;48.078;11.876;2023-01-28T06:39:17;95861.94;;;-1.65;100.00
23589;BME280;11972;48.078;11.876;2023-01-28T06:43:17;95859.66;;;-1.70;100.00
23589;BME280;11972;48.078;11.876;2023-01-28T06:47:18;95876.06;;;-1.57;100.00
23589;BME280;11972;48.078;11.876;2023-01-28T06:51:18;95878.75;;;-1.58;100.00
23589;BME280;11972;48.078;11.876;2023-01-28T06:55:18;95878.53;;;-1.68;100.00
23589;BME280;11972;48.078;11.876;2023-01-28T06:59:19;95871.91;;;-1.72;100.00
23589;BME280;11972;48.078;11.876;2023-01-28T07:03:19;95880.56;;;-1.73;100.00
23589;BME280;11972;48.078;11.876;2023-01-28T07:07:19;95880.56;;;-1.73;100.00
23589;BME280;11972;48.078;11.876;2023-01-28T07:11:20;95892.13;;;-1.64;100.00
23589;BME280;11972;48.078;11.876;2023-01-28T07:15:20;95892.84;;;-1.62;100.00
23589;BME280;11972;48.078;11.876;2023-01-28T07:19:21;95894.72;;;-1.64;100.00
23589;BME280;11972;48.078;11.876;2023-01-28T07:23:21;95891.56;;;-1.69;100.00
23589;BME280;11972;48.078;11.876;2023-01-28T07:27:22;95892.72;;;-1.61;100.00
23589;BME280;11972;48.078;11.876;2023-01-28T07:31:22;95904.19;;;-1.51;100.00
23589;BME280;11972;48.078;11.876;2023-01-28T07:35:23;95904.69;;;-1.45;100.00
23589;BME280;11972;48.078;11.876;2023-01-28T07:39:24;95909.06;;;-1.46;100.00
23589;BME280;11972;48.078;11.876;2023-01-28T07:43:24;95911.97;;;-1.38;100.00
23589;BME280;11972;48.078;11.876;2023-01-28T07:47:24;95908.16;;;-1.19;100.00
23589;BME280;11972;48.078;11.876;2023-01-28T07:51:25;95913.34;;;-1.19;100.00
23589;BME280;11972;48.078;11.876;2023-01-28T07:55:25;95923.72;;;-1.19;100.00
23589;BME280;11972;48.078;11.876;2023-01-28T07:59:26;95928.06;;;-1.33;100.00
23589;BME280;11972;48.078;11.876;2023-01-28T08:03:26;95938.91;;;-1.40;100.00
23589;BME280;11972;48.078;11.876;2023-01-28T08:07:27;95935.09;;;-1.47;100.00
23589;BME280;11972;48.078;11.876;2023-01-28T08:11:27;95944.69;;;-1.50;100.00
23589;BME280;11972;48.078;11.876;2023-01-28T08:15:28;95951.31;;;-1.58;100.00
23589;BME280;11972;48.078;11.876;2023-01-28T08:19:28;95956.09;;;-1.52;100.00
23589;BME280;11972;48.078;11.876;2023-01-28T08:23:29;95953.59;;;-1.54;100.00
23589;BME280;11972;48.078;11.876;2023-01-28T08:27:30;95962.50;;;-1.58;100.00
23589;BME280;11972;48.078;11.876;2023-01-28T08:31:30;95966.69;;;-1.42;100.00
23589;BME280;11972;48.078;11.876;2023-01-28T08:35:31;95965.13;;;-1.18;100.00
23589;BME280;11972;48.078;11.876;2023-01-28T08:39:32;95971.34;;;-1.08;100.00
23589;BME280;11972;48.078;11.876;2023-01-28T08:43:32;95972.81;;;-1.04;100.00
23589;BME280;11972;48.078;11.876;2023-01-28T08:47:33;95970.97;;;-1.02;100.00
23589;BME280;11972;48.078;11.876;2023-01-28T08:51:33;95969.72;;;-0.96;100.00
23589;BME280;11972;48.078;11.876;2023-01-28T08:55:33;95968.53;;;-0.78;100.00
23589;BME280;11972;48.078;11.876;2023-01-28T08:59:34;95972.88;;;-0.78;100.00
23589;BME280;11972;48.078;11.876;2023-01-28T09:03:34;95969.34;;;-0.77;100.00
23589;BME280;11972;48.078;11.876;2023-01-28T09:07:36;95982.31;;;-0.77;100.00
23589;BME280;11972;48.078;11.876;2023-01-28T09:11:36;95984.09;;;-0.65;100.00
23589;BME280;11972;48.078;11.876;2023-01-28T09:15:37;95988.97;;;-0.47;100.00
23589;BME280;11972;48.078;11.876;2023-01-28T09:19:37;95986.06;;;-0.30;100.00
23589;BME280;11972;48.078;11.876;2023-01-28T09:23:37;95988.13;;;-0.10;100.00
23589;BME280;11972;48.078;11.876;2023-01-28T09:27:38;95983.38;;;0.34;100.00
23589;BME280;11972;48.078;11.876;2023-01-28T09:31:39;95982.97;;;0.27;100.00
23589;BME280;11972;48.078;11.876;2023-01-28T09:35:40;95980.66;;;0.35;100.00
23589;BME280;11972;48.078;11.876;2023-01-28T09:39:40;95983.25;;;0.72;100.00
23589;BME280;11972;48.078;11.876;2023-01-28T09:47:44;95980.78;;;1.41;100.00
23589;BME280;11972;48.078;11.876;2023-01-28T09:51:52;95972.63;;;1.45;100.00
23589;BME280;11972;48.078;11.876;2023-01-28T09:56:05;95968.16;;;1.59;100.00
23589;BME280;11972;48.078;11.876;2023-01-28T10:00:15;95963.22;;;1.78;100.00
23589;BME280;11972;48.078;11.876;2023-01-28T10:05:18;95964.75;;;1.92;100.00
23589;BME280;11972;48.078;11.876;2023-01-28T10:09:12;95959.28;;;2.17;100.00
23589;BME280;11972;48.078;11.876;2023-01-28T10:17:41;95950.88;;;1.91;100.00
23589;BME280;11972;48.078;11.876;2023-01-28T10:21:47;95948.63;;;2.20;100.00
23589;BME280;11972;48.078;11.876;2023-01-28T10:25:50;95947.47;;;2.57;100.00
23589;BME280;11972;48.078;11.876;2023-01-28T10:29:51;95946.81;;;3.08;100.00
23589;BME280;11972;48.078;11.876;2023-01-28T10:33:52;95947.97;;;3.36;100.00
23589;BME280;11972;48.078;11.876;2023-01-28T10:37:59;95954.94;;;3.46;100.00
23589;BME280;11972;48.078;11.876;2023-01-28T10:42:01;95946.44;;;3.33;100.00
23589;BME280;11972;48.078;11.876;2023-01-28T10:46:25;95952.16;;;3.06;100.00
23589;BME280;11972;48.078;11.876;2023-01-28T10:50:29;95943.69;;;2.49;100.00
23589;BME280;11972;48.078;11.876;2023-01-28T10:54:30;95941.31;;;2.46;100.00
23589;BME280;11972;48.078;11.876;2023-01-28T10:58:33;95939.38;;;2.28;100.00
23589;BME280;11972;48.078;11.876;2023-01-28T11:02:35;95935.09;;;2.70;100.00
23589;BME280;11972;48.078;11.876;2023-01-28T11:06:36;95939.25;;;3.05;100.00
23589;BME280;11972;48.078;11.876;2023-01-28T11:10:37;95942.28;;;2.45;100.00
23589;BME280;11972;48.078;11.876;2023-01-28T11:14:37;95942.44;;;2.33;100.00
23589;BME280;11972;48.078;11.876;2023-01-28T11:18:40;95940.25;;;1.94;100.00
23589;BME280;11972;48.078;11.876;2023-01-28T11:22:46;95935.94;;;1.60;100.00
23589;BME280;11972;48.078;11.876;2023-01-28T11:26:49;95939.53;;;1.70;100.00
23589;BME280;11972;48.078;11.876;2023-01-28T11:30:52;95936.44;;;1.87;100.00
23589;BME280;11972;48.078;11.876;2023-01-28T11:34:56;95941.41;;;1.57;100.00
23589;BME280;11972;48.078;11.876;2023-01-28T11:39:22;95946.75;;;1.09;100.00
23589;BME280;11972;48.078;11.876;2023-01-28T11:43:26;95942.03;;;1.14;100.00
23589;BME280;11972;48.078;11.876;2023-01-28T11:47:31;95949.66;;;1.28;100.00
23589;BME280;11972;48.078;11.876;2023-01-28T12:00:03;95943.16;;;0.98;100.00
23589;BME280;11972;48.078;11.876;2023-01-28T12:08:43;95943.78;;;1.48;100.00
23589;BME280;11972;48.078;11.876;2023-01-28T12:26:06;95950.66;;;1.14;100.00
23589;BME280;11972;48.078;11.876;2023-01-28T12:38:43;95943.16;;;0.98;100.00
23589;BME280;11972;48.078;11.876;2023-01-28T12:42:51;95947.69;;;1.08;100.00
23589;BME280;11972;48.078;11.876;2023-01-28T12:46:57;95951.91;;;0.97;100.00
23589;BME280;11972;48.078;11.876;2023-01-28T12:51:09;95964.94;;;1.09;100.00
23589;BME280;11972;48.078;11.876;2023-01-28T12:55:18;95956.84;;;1.24;100.00
23589;BME280;11972;48.078;11.876;2023-01-28T12:59:36;95957.34;;;1.52;100.00
23589;BME280;11972;48.078;11.876;2023-01-28T13:03:47;95950.75;;;1.70;100.00
23589;BME280;11972;48.078;11.876;2023-01-28T13:07:56;95954.69;;;1.65;100.00
23589;BME280;11972;48.078;11.876;2023-01-28T13:11:58;95957.00;;;1.45;100.00
23589;BME280;11972;48.078;11.876;2023-01-28T13:16:00;95950.06;;;1.80;100.00
23589;BME280;11972;48.078;11.876;2023-01-28T13:20:13;95950.63;;;2.06;100.00
23589;BME280;11972;48.078;11.876;2023-01-28T13:28:29;95952.31;;;1.84;100.00
23589;BME280;11972;48.078;11.876;2023-01-28T13:32:33;95963.69;;;1.94;100.00
23589;BME280;11972;48.078;11.876;2023-01-28T13:40:34;95967.19;;;1.48;100.00
23589;BME280;11972;48.078;11.876;2023-01-28T13:44:36;95969.28;;;1.43;100.00
23589;BME280;11972;48.078;11.876;2023-01-28T13:48:49;95973.34;;;1.59;100.00
23589;BME280;11972;48.078;11.876;2023-01-28T13:52:58;95975.31;;;1.44;100.00
23589;BME280;11972;48.078;11.876;2023-01-28T14:01:51;95994.91;;;0.90;100.00
23589;BME280;11972;48.078;11.876;2023-01-28T14:15:21;96001.31;;;0.73;100.00
23589;BME280;11972;48.078;11.876;2023-01-28T14:19:27;96008.50;;;0.46;100.00
23589;BME280;11972;48.078;11.876;2023-01-28T14:23:29;96018.09;;;0.33;100.00
23589;BME280;11972;48.078;11.876;2023-01-28T14:27:37;96013.53;;;0.23;100.00
23589;BME280;11972;48.078;11.876;2023-01-28T14:31:40;96018.53;;;0.27;100.00
23589;BME280;11972;48.078;11.876;2023-01-28T14:35:46;96019.16;;;0.30;100.00
23589;BME280;11972;48.078;11.876;2023-01-28T14:39:51;96028.88;;;0.39;100.00
23589;BME280;11972;48.078;11.876;2023-01-28T14:43:55;96031.56;;;0.51;100.00
23589;BME280;11972;48.078;11.876;2023-01-28T15:00:56;96034.75;;;0.30;100.00
23589;BME280;11972;48.078;11.876;2023-01-28T15:05:09;96040.59;;;0.21;100.00
23589;BME280;11972;48.078;11.876;2023-01-28T15:09:12;96044.09;;;0.20;100.00
23589;BME280;11972;48.078;11.876;2023-01-28T15:13:35;96045.25;;;0.16;100.00
23589;BME280;11972;48.078;11.876;2023-01-28T15:17:40;96047.63;;;0.19;100.00
23589;BME280;11972;48.078;11.876;2023-01-28T15:21:43;96058.22;;;0.16;100.00
23589;BME280;11972;48.078;11.876;2023-01-28T15:25:44;96064.25;;;0.16;100.00
23589;BME280;11972;48.078;11.876;2023-01-28T15:29:53;96052.63;;;0.22;100.00
23589;BME280;11972;48.078;11.876;2023-01-28T15:38:00;96058.03;;;0.19;100.00
23589;BME280;11972;48.078;11.876;2023-01-28T15:42:04;96069.47;;;0.04;100.00
23589;BME280;11972;48.078;11.876;2023-01-28T15:46:10;96073.13;;;0.01;100.00
23589;BME280;11972;48.078;11.876;2023-01-28T15:50:19;96074.34;;;-0.05;100.00
23589;BME280;11972;48.078;11.876;2023-01-28T15:54:21;96081.00;;;-0.01;100.00
23589;BME280;11972;48.078;11.876;2023-01-28T15:58:30;96085.03;;;-0.09;100.00
23589;BME280;11972;48.078;11.876;2023-01-28T16:02:32;96096.69;;;-0.15;100.00
23589;BME280;11972;48.078;11.876;2023-01-28T16:06:38;96094.28;;;-0.18;100.00
23589;BME280;11972;48.078;11.876;2023-01-28T16:10:40;96097.81;;;-0.19;100.00
23589;BME280;11972;48.078;11.876;2023-01-28T16:14:43;96102.81;;;-0.16;100.00
23589;BME280;11972;48.078;11.876;2023-01-28T16:18:46;96095.66;;;0.01;100.00
23589;BME280;11972;48.078;11.876;2023-01-28T16:22:55;96102.63;;;0.13;100.00
23589;BME280;11972;48.078;11.876;2023-01-28T16:30:58;96120.56;;;-0.10;100.00
23589;BME280;11972;48.078;11.876;2023-01-28T16:34:59;96114.56;;;-0.10;100.00
23589;BME280;11972;48.078;11.876;2023-01-28T16:39:00;96117.03;;;0.04;100.00
23589;BME280;11972;48.078;11.876;2023-01-28T16:43:00;96127.47;;;0.17;100.00
23589;BME280;11972;48.078;11.876;2023-01-28T16:47:00;96122.47;;;0.27;100.00
23589;BME280;11972;48.078;11.876;2023-01-28T16:51:03;96124.75;;;0.31;100.00
23589;BME280;11972;48.078;11.876;2023-01-28T16:55:04;96123.81;;;0.32;100.00
23589;BME280;11972;48.078;11.876;2023-01-28T16:59:04;96125.69;;;0.30;100.00
23589;BME280;11972;48.078;11.876;2023-01-28T17:03:04;96127.78;;;0.25;100.00
23589;BME280;11972;48.078;11.876;2023-01-28T17:07:06;96129.13;;;0.18;100.00
23589;BME280;11972;48.078;11.876;2023-01-28T17:11:06;96141.69;;;0.11;100.00
23589;BME280;11972;48.078;11.876;2023-01-28T17:15:07;96143.66;;;0.08;100.00
23589;BME280;11972;48.078;11.876;2023-01-28T17:19:07;96140.97;;;-0.04;100.00
23589;BME280;11972;48.078;11.876;2023-01-28T17:23:13;96138.13;;;-0.13;100.00
23589;BME280;11972;48.078;11.876;2023-01-28T17:27:14;96150.59;;;-0.06;100.00
23589;BME280;11972;48.078;11.876;2023-01-28T17:31:14;96149.06;;;0.05;100.00
23589;BME280;11972;48.078;11.876;2023-01-28T17:35:14;96145.53;;;0.06;100.00
23589;BME280;11972;48.078;11.876;2023-01-28T17:39:15;96153.13;;;0.09;100.00
23589;BME280;11972;48.078;11.876;2023-01-28T17:43:15;96155.72;;;0.09;100.00
23589;BME280;11972;48.078;11.876;2023-01-28T17:47:15;96154.16;;;0.06;100.00
23589;BME280;11972;48.078;11.876;2023-01-28T17:51:16;96163.59;;;-0.06;100.00
23589;BME280;11972;48.078;11.876;2023-01-28T17:55:17;96166.28;;;-0.07;100.00
23589;BME280;11972;48.078;11.876;2023-01-28T17:59:18;96151.53;;;-0.19;100.00
23589;BME280;11972;48.078;11.876;2023-01-28T18:03:18;96161.13;;;-0.34;100.00
23589;BME280;11972;48.078;11.876;2023-01-28T18:07:18;96166.19;;;-0.45;100.00
23589;BME280;11972;48.078;11.876;2023-01-28T18:11:19;96161.22;;;-0.48;100.00
23589;BME280;11972;48.078;11.876;2023-01-28T18:15:19;96168.59;;;-0.42;100.00
23589;BME280;11972;48.078;11.876;2023-01-28T18:19:19;96168.69;;;-0.44;100.00
23589;BME280;11972;48.078;11.876;2023-01-28T18:23:20;96165.81;;;-0.39;100.00
23589;BME280;11972;48.078;11.876;2023-01-28T18:27:20;96166.31;;;-0.34;100.00
23589;BME280;11972;48.078;11.876;2023-01-28T18:31:22;96173.47;;;-0.38;100.00
23589;BME280;11972;48.078;11.876;2023-01-28T18:35:22;96176.38;;;-0.42;100.00
23589;BME280;11972;48.078;11.876;2023-01-28T18:39:25;96181.75;;;-0.45;100.00
23589;BME280;11972;48.078;11.876;2023-01-28T18:43:25;96186.75;;;-0.42;100.00
23589;BME280;11972;48.078;11.876;2023-01-28T18:47:26;96191.94;;;-0.42;100.00
23589;BME280;11972;48.078;11.876;2023-01-28T18:51:26;96191.88;;;-0.41;100.00
23589;BME280;11972;48.078;11.876;2023-01-28T18:55:27;96190.09;;;-0.40;100.00
23589;BME280;11972;48.078;11.876;2023-01-28T18:59:27;96194.69;;;-0.31;100.00
23589;BME280;11972;48.078;11.876;2023-01-28T19:03:27;96192.31;;;-0.21;100.00
23589;BME280;11972;48.078;11.876;2023-01-28T19:07:29;96197.03;;;-0.14;100.00
23589;BME280;11972;48.078;11.876;2023-01-28T19:11:31;96193.91;;;-0.19;100.00
23589;BME280;11972;48.078;11.876;2023-01-28T19:15:32;96194.34;;;-0.12;100.00
23589;BME280;11972;48.078;11.876;2023-01-28T19:19:32;96201.22;;;0.02;100.00
23589;BME280;11972;48.078;11.876;2023-01-28T19:23:33;96200.78;;;0.08;100.00
23589;BME280;11972;48.078;11.876;2023-01-28T19:27:33;96207.06;;;0.18;100.00
23589;BME280;11972;48.078;11.876;2023-01-28T19:31:34;96203.09;;;0.12;100.00
23589;BME280;11972;48.078;11.876;2023-01-28T19:35:34;96204.75;;;0.01;100.00
23589;BME280;11972;48.078;11.876;2023-01-28T19:39:37;96201.22;;;0.02;100.00
23589;BME280;11972;48.078;11.876;2023-01-28T19:43:38;96191.88;;;0.12;100.00
23589;BME280;11972;48.078;11.876;2023-01-28T19:47:38;96193.97;;;0.19;100.00
23589;BME280;11972;48.078;11.876;2023-01-28T19:51:39;96195.22;;;0.27;100.00
23589;BME280;11972;48.078;11.876;2023-01-28T19:55:40;96199.38;;;0.29;100.00
23589;BME280;11972;48.078;11.876;2023-01-28T19:59:41;96209.34;;;0.35;100.00
23589;BME280;11972;48.078;11.876;2023-01-28T20:03:41;96198.56;;;0.41;100.00
23589;BME280;11972;48.078;11.876;2023-01-28T20:07:42;96201.69;;;0.46;100.00
23589;BME280;11972;48.078;11.876;2023-01-28T20:11:42;96201.47;;;0.49;100.00
23589;BME280;11972;48.078;11.876;2023-01-28T20:15:42;96199.78;;;0.48;100.00
23589;BME280;11972;48.078;11.876;2023-01-28T20:19:43;96198.75;;;0.51;100.00
23589;BME280;11972;48.078;11.876;2023-01-28T20:23:44;96211.66;;;0.53;100.00
23589;BME280;11972;48.078;11.876;2023-01-28T20:27:46;96216.97;;;0.51;100.00
23589;BME280;11972;48.078;11.876;2023-01-28T20:31:47;96215.38;;;0.48;100.00
23589;BME280;11972;48.078;11.876;2023-01-28T20:35:48;96205.22;;;0.45;100.00
23589;BME280;11972;48.078;11.876;2023-01-28T20:39:49;96210.50;;;0.44;100.00
23589;BME280;11972;48.078;11.876;2023-01-28T20:43:51;96213.03;;;0.45;100.00
23589;BME280;11972;48.078;11.876;2023-01-28T20:47:52;96219.88;;;0.46;100.00
23589;BME280;11972;48.078;11.876;2023-01-28T20:51:53;96212.06;;;0.46;100.00
23589;BME280;11972;48.078;11.876;2023-01-28T20:55:57;96217.06;;;0.49;100.00
23589;BME280;11972;48.078;11.876;2023-01-28T20:59:57;96222.03;;;0.53;100.00
23589;BME280;11972;48.078;11.876;2023-01-28T21:03:58;96229.66;;;0.56;100.00
23589;BME280;11972;48.078;11.876;2023-01-28T21:07:59;96233.28;;;0.53;100.00
23589;BME280;11972;48.078;11.876;2023-01-28T21:11:59;96227.03;;;0.56;100.00
23589;BME280;11972;48.078;11.876;2023-01-28T21:15:59;96233.38;;;0.52;100.00
23589;BME280;11972;48.078;11.876;2023-01-28T21:20:00;96223.94;;;0.51;100.00
23589;BME280;11972;48.078;11.876;2023-01-28T21:24:00;96221.22;;;0.39;100.00
23589;BME280;11972;48.078;11.876;2023-01-28T21:28:00;96230.13;;;0.22;100.00
23589;BME280;11972;48.078;11.876;2023-01-28T21:32:02;96233.34;;;0.13;100.00
23589;BME280;11972;48.078;11.876;2023-01-28T21:36:10;96225.25;;;0.18;100.00
23589;BME280;11972;48.078;11.876;2023-01-28T21:40:11;96229.50;;;0.19;100.00
23589;BME280;11972;48.078;11.876;2023-01-28T21:44:11;96232.75;;;-0.05;100.00
23589;BME280;11972;48.078;11.876;2023-01-28T21:48:12;96237.81;;;-0.29;100.00
23589;BME280;11972;48.078;11.876;2023-01-28T21:52:12;96231.03;;;-0.31;100.00
23589;BME280;11972;48.078;11.876;2023-01-28T21:56:13;96243.06;;;-0.30;100.00
23589;BME280;11972;48.078;11.876;2023-01-28T22:00:13;96239.13;;;-0.36;100.00
23589;BME280;11972;48.078;11.876;2023-01-28T22:04:14;96243.25;;;-0.33;100.00
23589;BME280;11972;48.078;11.876;2023-01-28T22:08:15;96256.34;;;-0.35;100.00
23589;BME280;11972;48.078;11.876;2023-01-28T22:12:16;96243.66;;;-0.39;100.00
23589;BME280;11972;48.078;11.876;2023-01-28T22:16:16;96256.81;;;-0.28;100.00
23589;BME280;11972;48.078;11.876;2023-01-28T22:20:18;96254.78;;;-0.37;100.00
23589;BME280;11972;48.078;11.876;2023-01-28T22:24:20;96259.06;;;-0.51;100.00
23589;BME280;11972;48.078;11.876;2023-01-28T22:28:21;96256.88;;;-0.57;100.00
23589;BME280;11972;48.078;11.876;2023-01-28T22:32:22;96255.94;;;-0.56;100.00
23589;BME280;11972;48.078;11.876;2023-01-28T22:36:22;96252.81;;;-0.61;100.00
23589;BME280;11972;48.078;11.876;2023-01-28T22:40:23;96253.72;;;-0.62;100.00